sensor_id;sensor_type;location;lat;lon;timestamp;P1;durP1;ratioP1;P2;durP2;ratioP2
12320;SDS011;6225;52.720;8.276;2024-03-22T13:50:33;10.10;;;6.90;;
12320;SDS011;6225;52.720;8.276;2024-03-22T13:53:18;12.03;;;7.50;;
12320;SDS011;6225;52.720;8.276;2024-03-22T13:56:02;11.05;;;9.43;;
12320;SDS011;6225;52.720;8.276;2024-03-22T13:58:47;11.10;;;9.40;;
12320;SDS011;6225;52.720;8.276;2024-03-22T14:01:32;12.43;;;9.50;;
12320;SDS011;6225;52.720;8.276;2024-03-22T14:04:17;11.03;;;8.17;;
12320;SDS011;6225;52.720;8.276;2024-03-22T14:07:03;7.30;;;6.53;;
12320;SDS011;6225;52.720;8.276;2024-03-22T14:09:48;9.40;;;6.73;;
12320;SDS011;6225;52.720;8.276;2024-03-22T14:12:33;8.23;;;6.60;;
12320;SDS011;6225;52.720;8.276;2024-03-22T14:15:17;8.27;;;6.40;;
12320;SDS011;6225;52.720;8.276;2024-03-22T14:18:02;7.97;;;6.63;;
12320;SDS011;6225;52.720;8.276;2024-03-22T14:20:47;9.60;;;6.93;;
12320;SDS011;6225;52.720;8.276;2024-03-22T14:23:31;8.80;;;6.90;;
12320;SDS011;6225;52.720;8.276;2024-03-22T14:26:17;7.57;;;6.57;;
12320;SDS011;6225;52.720;8.276;2024-03-22T14:29:02;9.13;;;6.60;;
12320;SDS011;6225;52.720;8.276;2024-03-22T14:31:46;8.93;;;7.07;;
12320;SDS011;6225;52.720;8.276;2024-03-22T14:34:31;9.47;;;7.20;;
12320;SDS011;6225;52.720;8.276;2024-03-22T14:37:15;10.10;;;7.87;;
12320;SDS011;6225;52.720;8.276;2024-03-22T14:40:00;9.43;;;7.30;;
12320;SDS011;6225;52.720;8.276;2024-03-22T14:42:48;8.60;;;7.20;;
12320;SDS011;6225;52.720;8.276;2024-03-22T14:45:33;8.83;;;7.40;;
12320;SDS011;6225;52.720;8.276;2024-03-22T14:48:19;8.40;;;6.57;;
12320;SDS011;6225;52.720;8.276;2024-03-22T14:51:04;9.93;;;6.73;;
12320;SDS011;6225;52.720;8.276;2024-03-22T14:53:48;8.27;;;7.10;;
12320;SDS011;6225;52.720;8.276;2024-03-22T14:56:33;9.13;;;7.03;;
12320;SDS011;6225;52.720;8.276;2024-03-22T14:59:17;8.77;;;7.00;;
12320;SDS011;6225;52.720;8.276;2024-03-22T15:02:02;9.47;;;7.40;;
12320;SDS011;6225;52.720;8.276;2024-03-22T15:04:46;10.53;;;7.10;;
12320;SDS011;6225;52.720;8.276;2024-03-22T15:07:31;8.30;;;6.97;;
12320;SDS011;6225;52.720;8.276;2024-03-22T15:10:15;7.93;;;6.30;;
12320;SDS011;6225;52.720;8.276;2024-03-22T15:13:00;6.43;;;5.77;;
12320;SDS011;6225;52.720;8.276;2024-03-22T15:15:52;7.47;;;6.37;;
12320;SDS011;6225;52.720;8.276;2024-03-22T15:18:37;7.57;;;6.53;;
12320;SDS011;6225;52.720;8.276;2024-03-22T15:21:21;7.67;;;6.13;;
12320;SDS011;6225;52.720;8.276;2024-03-22T15:24:06;7.63;;;6.47;;
12320;SDS011;6225;52.720;8.276;2024-03-22T15:26:53;7.37;;;5.27;;
12320;SDS011;6225;52.720;8.276;2024-03-22T15:29:42;6.23;;;3.20;;
12320;SDS011;6225;52.720;8.276;2024-03-22T15:32:29;5.63;;;2.93;;
12320;SDS011;6225;52.720;8.276;2024-03-22T15:35:15;9.37;;;3.43;;
12320;SDS011;6225;52.720;8.276;2024-03-22T15:38:01;4.73;;;3.10;;
12320;SDS011;6225;52.720;8.276;2024-03-22T15:40:47;7.13;;;2.83;;
12320;SDS011;6225;52.720;8.276;2024-03-22T15:43:32;6.13;;;3.20;;
12320;SDS011;6225;52.720;8.276;2024-03-22T15:46:18;5.97;;;3.00;;
12320;SDS011;6225;52.720;8.276;2024-03-22T15:49:04;6.83;;;3.23;;
12320;SDS011;6225;52.720;8.276;2024-03-22T15:51:50;5.97;;;3.03;;
12320;SDS011;6225;52.720;8.276;2024-03-22T15:54:37;6.77;;;3.20;;
12320;SDS011;6225;52.720;8.276;2024-03-22T15:57:23;7.00;;;3.10;;
12320;SDS011;6225;52.720;8.276;2024-03-22T16:00:10;5.53;;;3.07;;
12320;SDS011;6225;52.720;8.276;2024-03-22T16:02:56;7.47;;;3.40;;
12320;SDS011;6225;52.720;8.276;2024-03-22T16:05:49;6.60;;;2.90;;
12320;SDS011;6225;52.720;8.276;2024-03-22T16:08:40;7.33;;;3.07;;
12320;SDS011;6225;52.720;8.276;2024-03-22T16:11:26;9.07;;;3.33;;
12320;SDS011;6225;52.720;8.276;2024-03-22T16:14:12;8.10;;;3.20;;
12320;SDS011;6225;52.720;8.276;2024-03-22T16:16:56;8.37;;;3.43;;
12320;SDS011;6225;52.720;8.276;2024-03-22T16:19:40;4.87;;;2.90;;
12320;SDS011;6225;52.720;8.276;2024-03-22T16:22:27;6.50;;;3.10;;
12320;SDS011;6225;52.720;8.276;2024-03-22T16:25:13;9.20;;;3.17;;
12320;SDS011;6225;52.720;8.276;2024-03-22T16:27:57;9.07;;;3.67;;
12320;SDS011;6225;52.720;8.276;2024-03-22T16:30:42;10.83;;;3.80;;
12320;SDS011;6225;52.720;8.276;2024-03-22T16:33:28;7.90;;;3.53;;
12320;SDS011;6225;52.720;8.276;2024-03-22T16:36:15;8.07;;;3.50;;
12320;SDS011;6225;52.720;8.276;2024-03-22T16:39:00;7.57;;;3.70;;
12320;SDS011;6225;52.720;8.276;2024-03-22T16:41:46;8.23;;;4.10;;
12320;SDS011;6225;52.720;8.276;2024-03-22T16:44:32;8.77;;;3.90;;
12320;SDS011;6225;52.720;8.276;2024-03-22T16:47:17;8.80;;;3.70;;
12320;SDS011;6225;52.720;8.276;2024-03-22T16:50:01;8.67;;;3.80;;
12320;SDS011;6225;52.720;8.276;2024-03-22T16:52:45;10.30;;;3.83;;
12320;SDS011;6225;52.720;8.276;2024-03-22T16:55:30;8.30;;;3.17;;
12320;SDS011;6225;52.720;8.276;2024-03-22T16:58:16;7.63;;;3.57;;
12320;SDS011;6225;52.720;8.276;2024-03-22T17:01:03;8.87;;;4.17;;
12320;SDS011;6225;52.720;8.276;2024-03-22T17:03:48;12.53;;;3.97;;
12320;SDS011;6225;52.720;8.276;2024-03-22T17:06:34;6.60;;;3.90;;
12320;SDS011;6225;52.720;8.276;2024-03-22T17:09:18;9.57;;;4.20;;
12320;SDS011;6225;52.720;8.276;2024-03-22T17:12:04;9.97;;;4.53;;
12320;SDS011;6225;52.720;8.276;2024-03-22T17:14:50;11.60;;;4.47;;
12320;SDS011;6225;52.720;8.276;2024-03-22T17:17:35;11.87;;;5.37;;
12320;SDS011;6225;52.720;8.276;2024-03-22T17:20:21;10.40;;;5.33;;
12320;SDS011;6225;52.720;8.276;2024-03-22T17:23:06;14.90;;;5.77;;
12320;SDS011;6225;52.720;8.276;2024-03-22T17:26:03;10.33;;;5.50;;
12320;SDS011;6225;52.720;8.276;2024-03-22T17:28:48;14.17;;;5.53;;
12320;SDS011;6225;52.720;8.276;2024-03-22T17:31:33;11.60;;;6.00;;
12320;SDS011;6225;52.720;8.276;2024-03-22T17:34:17;13.43;;;6.20;;
12320;SDS011;6225;52.720;8.276;2024-03-22T17:37:01;15.37;;;6.27;;
12320;SDS011;6225;52.720;8.276;2024-03-22T17:39:45;8.73;;;6.03;;
12320;SDS011;6225;52.720;8.276;2024-03-22T17:42:30;9.87;;;5.47;;
12320;SDS011;6225;52.720;8.276;2024-03-22T17:45:15;10.23;;;5.20;;
12320;SDS011;6225;52.720;8.276;2024-03-22T17:48:01;11.53;;;5.50;;
12320;SDS011;6225;52.720;8.276;2024-03-22T17:50:44;10.13;;;5.73;;
12320;SDS011;6225;52.720;8.276;2024-03-22T17:53:28;9.53;;;5.50;;
12320;SDS011;6225;52.720;8.276;2024-03-22T17:56:12;10.70;;;6.23;;
12320;SDS011;6225;52.720;8.276;2024-03-22T17:58:56;13.97;;;5.90;;
12320;SDS011;6225;52.720;8.276;2024-03-22T18:01:42;13.40;;;6.63;;
12320;SDS011;6225;52.720;8.276;2024-03-22T18:04:26;13.23;;;6.03;;
12320;SDS011;6225;52.720;8.276;2024-03-22T18:07:10;12.43;;;5.80;;
12320;SDS011;6225;52.720;8.276;2024-03-22T18:09:54;13.57;;;6.10;;
12320;SDS011;6225;52.720;8.276;2024-03-22T18:12:38;9.87;;;5.80;;
12320;SDS011;6225;52.720;8.276;2024-03-22T18:15:23;12.13;;;5.00;;
12320;SDS011;6225;52.720;8.276;2024-03-22T18:18:07;8.73;;;4.53;;
12320;SDS011;6225;52.720;8.276;2024-03-22T18:20:51;12.97;;;5.20;;
12320;SDS011;6225;52.720;8.276;2024-03-22T18:23:36;14.03;;;5.30;;
12320;SDS011;6225;52.720;8.276;2024-03-22T18:26:20;12.83;;;5.60;;
12320;SDS011;6225;52.720;8.276;2024-03-22T18:29:04;12.60;;;4.97;;
12320;SDS011;6225;52.720;8.276;2024-03-22T18:31:49;10.63;;;5.13;;
12320;SDS011;6225;52.720;8.276;2024-03-22T18:34:33;15.37;;;5.03;;
12320;SDS011;6225;52.720;8.276;2024-03-22T18:37:17;17.13;;;5.57;;
12320;SDS011;6225;52.720;8.276;2024-03-22T18:40:03;9.37;;;5.17;;
12320;SDS011;6225;52.720;8.276;2024-03-22T18:42:47;9.87;;;5.23;;
12320;SDS011;6225;52.720;8.276;2024-03-22T18:45:31;13.70;;;5.23;;
12320;SDS011;6225;52.720;8.276;2024-03-22T18:48:16;16.37;;;5.30;;
12320;SDS011;6225;52.720;8.276;2024-03-22T18:51:00;11.87;;;5.00;;
12320;SDS011;6225;52.720;8.276;2024-03-22T18:53:44;14.10;;;4.83;;
12320;SDS011;6225;52.720;8.276;2024-03-22T18:56:28;13.17;;;5.00;;
12320;SDS011;6225;52.720;8.276;2024-03-22T18:59:12;11.30;;;5.67;;
12320;SDS011;6225;52.720;8.276;2024-03-22T19:01:56;10.87;;;5.70;;
12320;SDS011;6225;52.720;8.276;2024-03-22T19:04:40;12.30;;;5.57;;
12320;SDS011;6225;52.720;8.276;2024-03-22T19:07:24;14.70;;;5.93;;
12320;SDS011;6225;52.720;8.276;2024-03-22T19:10:09;11.33;;;5.93;;
12320;SDS011;6225;52.720;8.276;2024-03-22T19:12:54;10.13;;;5.60;;
12320;SDS011;6225;52.720;8.276;2024-03-22T19:15:38;15.23;;;6.10;;
12320;SDS011;6225;52.720;8.276;2024-03-22T19:18:29;12.20;;;6.30;;
12320;SDS011;6225;52.720;8.276;2024-03-22T19:21:14;13.00;;;6.53;;
12320;SDS011;6225;52.720;8.276;2024-03-22T19:23:58;14.63;;;6.03;;
12320;SDS011;6225;52.720;8.276;2024-03-22T19:26:42;15.47;;;5.83;;
12320;SDS011;6225;52.720;8.276;2024-03-22T19:29:27;16.30;;;4.80;;
12320;SDS011;6225;52.720;8.276;2024-03-22T19:32:11;11.37;;;4.30;;
12320;SDS011;6225;52.720;8.276;2024-03-22T19:34:56;12.27;;;4.63;;
12320;SDS011;6225;52.720;8.276;2024-03-22T19:37:40;11.03;;;4.30;;
12320;SDS011;6225;52.720;8.276;2024-03-22T19:40:25;18.70;;;4.27;;
12320;SDS011;6225;52.720;8.276;2024-03-22T19:43:09;18.60;;;3.87;;
12320;SDS011;6225;52.720;8.276;2024-03-22T19:45:54;12.70;;;4.80;;
12320;SDS011;6225;52.720;8.276;2024-03-22T19:48:38;19.03;;;4.47;;
12320;SDS011;6225;52.720;8.276;2024-03-22T19:51:23;17.67;;;4.00;;
12320;SDS011;6225;52.720;8.276;2024-03-22T19:54:10;15.83;;;4.03;;
12320;SDS011;6225;52.720;8.276;2024-03-22T19:56:54;18.40;;;4.23;;
12320;SDS011;6225;52.720;8.276;2024-03-22T19:59:39;18.93;;;3.63;;
12320;SDS011;6225;52.720;8.276;2024-03-22T20:02:23;12.27;;;3.47;;
12320;SDS011;6225;52.720;8.276;2024-03-22T20:05:07;17.33;;;4.20;;
12320;SDS011;6225;52.720;8.276;2024-03-22T20:07:51;11.90;;;3.90;;
12320;SDS011;6225;52.720;8.276;2024-03-22T20:10:38;16.40;;;3.47;;
12320;SDS011;6225;52.720;8.276;2024-03-22T20:13:26;16.97;;;4.27;;
12320;SDS011;6225;52.720;8.276;2024-03-22T20:16:11;18.63;;;4.63;;
12320;SDS011;6225;52.720;8.276;2024-03-22T20:18:55;18.17;;;4.83;;
12320;SDS011;6225;52.720;8.276;2024-03-22T20:21:39;14.73;;;4.23;;
12320;SDS011;6225;52.720;8.276;2024-03-22T20:24:23;21.90;;;4.90;;
12320;SDS011;6225;52.720;8.276;2024-03-22T20:27:07;12.33;;;4.73;;
12320;SDS011;6225;52.720;8.276;2024-03-22T20:29:52;15.30;;;4.80;;
12320;SDS011;6225;52.720;8.276;2024-03-22T20:32:36;15.20;;;5.47;;
12320;SDS011;6225;52.720;8.276;2024-03-22T20:35:20;18.17;;;5.13;;
